createdAt,value
2022-08-20T06:10:19.541Z,100.00
2022-08-20T06:12:45.853Z,100.00
2022-08-20T06:15:12.977Z,100.00
2022-08-20T06:17:39.750Z,100.00
2022-08-20T06:20:08.653Z,100.00
2022-08-20T06:22:36.393Z,100.00
2022-08-20T06:25:02.610Z,100.00
2022-08-20T06:27:29.331Z,100.00
2022-08-20T06:29:55.623Z,100.00
2022-08-20T06:32:32.078Z,100.00
2022-08-20T06:35:02.042Z,100.00
2022-08-20T06:37:32.031Z,100.00
2022-08-20T06:40:03.814Z,100.00
2022-08-20T06:42:30.079Z,100.00
2022-08-20T06:44:56.229Z,100.00
2022-08-20T06:47:22.380Z,100.00
2022-08-20T06:49:48.873Z,100.00
2022-08-20T06:52:18.271Z,100.00
2022-08-20T06:54:45.783Z,100.00
2022-08-20T06:57:11.980Z,100.00
2022-08-20T06:59:38.124Z,100.00
2022-08-20T07:02:04.728Z,100.00
2022-08-20T07:04:30.929Z,100.00
2022-08-20T07:06:57.794Z,100.00
2022-08-20T07:09:25.464Z,100.00
2022-08-20T07:11:52.363Z,100.00
2022-08-20T07:14:19.019Z,100.00
2022-08-20T07:16:47.284Z,100.00
2022-08-20T07:19:14.586Z,100.00
2022-08-20T07:21:40.859Z,100.00
2022-08-20T07:24:07.198Z,100.00
2022-08-20T07:26:34.268Z,100.00
2022-08-20T07:29:00.464Z,100.00
2022-08-20T07:31:45.334Z,100.00
2022-08-20T07:34:14.352Z,100.00
2022-08-20T07:36:40.866Z,100.00
2022-08-20T07:39:16.757Z,100.00
2022-08-20T07:42:02.895Z,100.00
2022-08-20T07:44:31.225Z,100.00
2022-08-20T07:46:59.509Z,100.00
2022-08-20T07:49:25.667Z,100.00
2022-08-20T07:51:51.848Z,100.00
2022-08-20T07:54:18.148Z,100.00
2022-08-20T07:56:44.302Z,100.00
2022-08-20T07:59:10.462Z,100.00
2022-08-20T08:01:36.621Z,100.00
2022-08-20T08:04:03.059Z,100.00
2022-08-20T08:06:31.593Z,100.00
2022-08-20T08:09:02.072Z,100.00
2022-08-20T08:11:28.356Z,100.00
2022-08-20T08:13:54.733Z,100.00
2022-08-20T08:16:21.101Z,100.00
2022-08-20T08:18:51.735Z,100.00
2022-08-20T08:21:19.130Z,100.00
2022-08-20T08:23:45.750Z,100.00
2022-08-20T08:26:16.057Z,100.00
2022-08-20T08:28:45.194Z,100.00
2022-08-20T08:31:11.969Z,100.00
2022-08-20T08:33:40.094Z,100.00
2022-08-20T08:36:12.457Z,100.00
2022-08-20T08:38:41.392Z,100.00
2022-08-20T08:41:16.603Z,100.00
2022-08-20T08:43:46.849Z,100.00
2022-08-20T08:46:15.398Z,100.00
2022-08-20T08:48:44.562Z,100.00
2022-08-20T08:51:13.316Z,100.00
2022-08-20T08:53:43.818Z,99.43
2022-08-20T08:56:10.556Z,96.55
2022-08-20T08:58:37.032Z,95.82
2022-08-20T09:01:55.132Z,96.57
2022-08-20T09:04:05.475Z,96.35
2022-08-20T09:06:32.546Z,95.80
2022-08-20T09:09:04.853Z,95.62
2022-08-20T09:11:45.268Z,94.42
2022-08-20T09:14:11.429Z,94.52
2022-08-20T09:16:52.618Z,93.93
2022-08-20T09:19:19.640Z,95.52
2022-08-20T09:21:45.792Z,95.73
2022-08-20T09:24:11.944Z,94.46
2022-08-20T09:26:39.263Z,94.48
2022-08-20T09:29:05.599Z,91.19
2022-08-20T09:31:32.445Z,90.65
2022-08-20T09:33:59.357Z,90.54
2022-08-20T09:36:31.631Z,90.67
2022-08-20T09:38:59.252Z,90.60
2022-08-20T09:41:25.471Z,90.20
2022-08-20T09:43:51.642Z,90.47
2022-08-20T09:46:17.906Z,90.51
2022-08-20T09:48:44.092Z,91.87
2022-08-20T09:51:10.309Z,93.18
2022-08-20T09:53:36.507Z,92.65
2022-08-20T09:56:03.601Z,93.14
2022-08-20T09:58:38.331Z,93.82
2022-08-20T10:01:13.727Z,94.14
2022-08-20T10:03:41.830Z,93.46
2022-08-20T10:06:08.443Z,92.38
2022-08-20T10:08:34.667Z,92.71
2022-08-20T10:11:00.850Z,91.74
2022-08-20T10:13:27.113Z,93.53
2022-08-20T10:15:53.336Z,94.50
2022-08-20T10:18:19.571Z,90.14
2022-08-20T10:20:45.756Z,89.43
2022-08-20T10:23:12.056Z,91.36
2022-08-20T10:25:38.420Z,91.55
2022-08-20T10:28:05.957Z,91.98
2022-08-20T10:30:32.128Z,90.55
2022-08-20T10:32:58.273Z,90.97
2022-08-20T10:35:24.495Z,91.20
2022-08-20T10:37:50.764Z,90.63
2022-08-20T10:40:17.120Z,89.49
2022-08-20T10:42:44.492Z,88.85
2022-08-20T10:45:12.555Z,87.28
2022-08-20T10:47:39.396Z,87.17
2022-08-20T10:50:09.214Z,86.70
2022-08-20T10:52:35.382Z,85.32
2022-08-20T10:55:04.302Z,84.71
2022-08-20T10:57:33.618Z,84.37
2022-08-20T11:00:01.159Z,85.58
2022-08-20T11:02:28.198Z,83.74
2022-08-20T11:04:55.296Z,85.79
2022-08-20T11:07:50.532Z,82.60
2022-08-20T11:10:14.003Z,83.64
2022-08-20T11:12:40.293Z,83.72
2022-08-20T11:15:09.249Z,82.83
2022-08-20T11:17:39.526Z,82.83
2022-08-20T11:20:07.959Z,83.07
2022-08-20T11:22:34.578Z,83.88
2022-08-20T11:25:00.736Z,82.86
2022-08-20T11:27:30.441Z,82.65
2022-08-20T11:29:56.928Z,81.75
2022-08-20T11:32:23.856Z,81.95
2022-08-20T11:34:50.865Z,81.90
2022-08-20T11:37:19.529Z,80.77
2022-08-20T11:39:46.070Z,79.22
2022-08-20T11:42:12.485Z,78.91
2022-08-20T11:44:38.839Z,81.20
2022-08-20T11:47:06.997Z,80.70
2022-08-20T11:49:36.258Z,81.54
2022-08-20T11:52:02.650Z,82.21
2022-08-20T11:54:29.133Z,82.52
2022-08-20T11:56:59.166Z,80.89
2022-08-20T11:59:26.524Z,81.11
2022-08-20T12:02:03.282Z,80.79
2022-08-20T12:04:29.735Z,81.49
2022-08-20T12:07:08.094Z,82.74
2022-08-20T12:09:34.245Z,82.74
2022-08-20T12:12:00.397Z,81.97
2022-08-20T12:14:27.042Z,81.86
2022-08-20T12:16:53.198Z,81.27
2022-08-20T12:19:19.392Z,80.80
2022-08-20T12:21:45.596Z,81.02
2022-08-20T12:24:11.741Z,79.97
2022-08-20T12:26:37.921Z,79.71
2022-08-20T12:29:04.123Z,79.72
2022-08-20T12:31:30.297Z,78.97
2022-08-20T12:33:56.444Z,79.03
2022-08-20T12:36:22.599Z,80.05
2022-08-20T12:38:48.747Z,79.47
2022-08-20T12:41:14.935Z,78.28
2022-08-20T12:43:41.135Z,78.41
2022-08-20T12:46:07.313Z,78.66
2022-08-20T12:48:33.472Z,79.74
2022-08-20T12:50:59.649Z,79.65
2022-08-20T12:53:25.868Z,82.60
2022-08-20T12:55:52.072Z,85.04
2022-08-20T12:58:19.506Z,85.70
2022-08-20T13:00:48.582Z,84.83
2022-08-20T13:03:17.476Z,84.53
2022-08-20T13:05:43.632Z,84.19
2022-08-20T13:08:12.054Z,82.67
2022-08-20T13:10:45.742Z,81.43
2022-08-20T13:13:14.164Z,79.55
2022-08-20T13:15:40.474Z,80.52
2022-08-20T13:18:07.512Z,79.01
2022-08-20T13:20:34.803Z,78.63
2022-08-20T13:23:02.230Z,79.25
2022-08-20T13:25:28.482Z,78.91
2022-08-20T13:27:58.147Z,79.70
2022-08-20T13:30:24.813Z,78.21
2022-08-20T13:32:51.188Z,75.71
2022-08-20T13:35:17.953Z,74.38
2022-08-20T13:37:44.141Z,74.94
2022-08-20T13:40:10.913Z,73.62
2022-08-20T13:42:37.405Z,75.04
2022-08-20T13:45:04.845Z,73.82
2022-08-20T13:47:36.920Z,74.03
2022-08-20T13:50:15.305Z,74.17
2022-08-20T13:52:42.564Z,73.77
2022-08-20T13:55:11.049Z,75.42
2022-08-20T13:57:37.505Z,75.15
2022-08-20T14:00:08.843Z,74.94
2022-08-20T14:02:37.141Z,74.26
2022-08-20T14:05:04.201Z,75.49
2022-08-20T14:07:32.809Z,74.88
2022-08-20T14:10:02.843Z,74.78
2022-08-20T14:12:30.688Z,74.78
2022-08-20T14:14:57.175Z,74.73
2022-08-20T14:17:32.670Z,75.19
2022-08-20T14:20:09.394Z,74.84
2022-08-20T14:22:37.015Z,74.78
2022-08-20T14:25:05.375Z,73.61
2022-08-20T14:27:33.436Z,74.31
2022-08-20T14:30:00.505Z,74.04
2022-08-20T14:32:27.642Z,73.66
2022-08-20T14:34:54.697Z,73.67
2022-08-20T14:37:26.353Z,74.75
2022-08-20T14:39:57.180Z,74.96
2022-08-20T14:42:24.559Z,73.79
2022-08-20T14:44:51.312Z,74.97
2022-08-20T14:47:22.566Z,74.12
2022-08-20T14:49:50.649Z,73.74
2022-08-20T14:52:18.934Z,73.89
2022-08-20T14:54:46.534Z,74.72
2022-08-20T14:57:15.114Z,75.85
2022-08-20T14:59:42.309Z,75.11
2022-08-20T15:02:10.356Z,75.03
2022-08-20T15:04:37.309Z,76.08
2022-08-20T15:07:08.165Z,76.45
2022-08-20T15:09:37.314Z,76.55
2022-08-20T15:12:03.774Z,77.80
2022-08-20T15:14:29.914Z,78.09
2022-08-20T15:16:58.204Z,79.54
2022-08-20T15:19:24.333Z,79.92
2022-08-20T15:21:50.501Z,81.13
2022-08-20T15:24:19.401Z,82.54
2022-08-20T15:26:45.831Z,83.44
2022-08-20T15:29:11.966Z,85.07
2022-08-20T15:31:49.212Z,85.91
2022-08-20T15:34:17.954Z,87.34
2022-08-20T15:36:44.570Z,89.08
2022-08-20T15:39:10.717Z,90.61
2022-08-20T15:41:36.874Z,91.90
2022-08-20T15:44:03.210Z,92.84
2022-08-20T15:46:31.596Z,93.92
2022-08-20T15:49:02.306Z,95.55
2022-08-20T15:51:46.588Z,96.50
2022-08-20T15:54:18.233Z,97.07
2022-08-20T15:56:52.827Z,97.78
2022-08-20T15:59:46.951Z,98.86
2022-08-20T16:02:32.097Z,99.83
2022-08-20T16:05:16.344Z,100.00
2022-08-20T16:08:17.692Z,100.00
2022-08-20T16:10:59.135Z,100.00
2022-08-20T16:13:38.545Z,100.00
2022-08-20T16:16:10.974Z,100.00
2022-08-20T16:18:40.057Z,100.00
2022-08-20T16:21:11.856Z,100.00
2022-08-20T16:23:40.869Z,100.00
2022-08-20T16:26:25.577Z,100.00
2022-08-20T16:29:09.977Z,100.00
2022-08-20T16:31:49.389Z,100.00
2022-08-20T16:34:40.638Z,100.00
2022-08-20T16:37:23.796Z,100.00
2022-08-20T16:40:26.382Z,100.00
2022-08-20T16:42:55.163Z,100.00
2022-08-20T16:45:28.604Z,100.00
2022-08-20T16:48:00.857Z,100.00
2022-08-20T16:50:34.887Z,100.00
2022-08-20T16:53:01.272Z,100.00
2022-08-20T16:55:27.876Z,100.00
2022-08-20T16:57:54.698Z,100.00
2022-08-20T17:00:35.333Z,100.00
2022-08-20T17:03:05.283Z,100.00
2022-08-20T17:05:37.297Z,100.00
2022-08-20T17:08:07.197Z,100.00
2022-08-20T17:10:53.908Z,100.00
2022-08-20T17:13:28.229Z,100.00
2022-08-20T17:16:00.102Z,100.00
2022-08-20T17:18:28.926Z,100.00
2022-08-20T17:21:01.897Z,100.00
2022-08-20T17:23:28.676Z,100.00
2022-08-20T17:26:02.352Z,100.00
2022-08-20T17:28:33.245Z,100.00
2022-08-20T17:31:01.637Z,100.00
2022-08-20T17:33:38.948Z,100.00
2022-08-20T17:36:11.246Z,100.00
2022-08-20T17:38:45.634Z,100.00
2022-08-20T17:41:22.254Z,100.00
2022-08-20T17:43:57.406Z,100.00
2022-08-20T17:46:25.464Z,100.00
2022-08-20T17:48:52.790Z,100.00
2022-08-20T17:51:20.548Z,100.00
2022-08-20T17:54:21.774Z,100.00
2022-08-20T17:56:53.707Z,100.00
2022-08-20T17:59:33.626Z,100.00
2022-08-20T18:02:15.401Z,100.00
2022-08-20T18:04:42.397Z,100.00
2022-08-20T18:07:11.261Z,100.00
2022-08-20T18:09:55.806Z,100.00
2022-08-20T18:12:43.730Z,100.00
2022-08-20T18:15:31.857Z,100.00
2022-08-20T18:18:16.861Z,100.00
2022-08-20T18:20:49.778Z,100.00
2022-08-20T18:23:28.703Z,100.00
2022-08-20T18:26:05.257Z,100.00
2022-08-20T18:28:40.128Z,100.00
2022-08-20T18:31:09.116Z,100.00
2022-08-20T18:33:45.625Z,100.00
2022-08-20T18:36:27.491Z,100.00
2022-08-20T18:39:07.991Z,100.00
2022-08-20T18:41:41.100Z,100.00
2022-08-20T18:44:13.407Z,100.00
2022-08-20T18:46:55.924Z,100.00
2022-08-20T18:49:31.235Z,100.00
2022-08-20T18:51:58.923Z,100.00
2022-08-20T18:54:32.675Z,100.00
2022-08-20T18:57:32.094Z,100.00
2022-08-20T19:00:16.016Z,100.00
2022-08-20T19:03:20.777Z,100.00
2022-08-20T19:06:01.953Z,100.00
2022-08-20T19:08:44.078Z,100.00
2022-08-20T19:11:45.221Z,100.00
2022-08-20T19:14:40.782Z,100.00
2022-08-20T19:17:14.744Z,100.00
2022-08-20T19:19:40.959Z,100.00
2022-08-20T19:22:07.354Z,100.00
2022-08-20T19:24:35.577Z,100.00
2022-08-20T19:27:07.494Z,100.00
2022-08-20T19:29:39.493Z,100.00
2022-08-20T19:32:09.621Z,100.00
2022-08-20T19:34:36.286Z,100.00
2022-08-20T19:37:35.274Z,100.00
2022-08-20T19:40:02.300Z,100.00
2022-08-20T19:42:40.270Z,100.00
2022-08-20T19:45:09.615Z,100.00
2022-08-20T19:47:45.834Z,100.00
2022-08-20T19:50:14.803Z,100.00
2022-08-20T19:52:57.673Z,100.00
2022-08-20T19:55:29.849Z,100.00
2022-08-20T19:58:00.124Z,100.00
2022-08-20T20:00:30.445Z,100.00
2022-08-20T20:02:56.869Z,100.00
2022-08-20T20:05:23.182Z,100.00
2022-08-20T20:07:53.420Z,100.00
2022-08-20T20:10:35.188Z,100.00
2022-08-20T20:13:18.014Z,100.00
2022-08-20T20:15:44.383Z,100.00
2022-08-20T20:18:11.721Z,100.00
2022-08-20T20:20:55.983Z,100.00
2022-08-20T20:23:25.704Z,100.00
2022-08-20T20:26:02.250Z,100.00
2022-08-20T20:28:31.553Z,100.00
2022-08-20T20:31:12.131Z,100.00
2022-08-20T20:33:44.114Z,100.00
2022-08-20T20:36:17.717Z,100.00
2022-08-20T20:38:58.062Z,100.00
2022-08-20T20:41:28.649Z,100.00
2022-08-20T20:44:04.699Z,100.00
2022-08-20T20:46:34.626Z,100.00
2022-08-20T20:49:06.851Z,100.00
2022-08-20T20:51:36.326Z,100.00
2022-08-20T20:54:05.477Z,100.00
2022-08-20T20:56:38.608Z,100.00
2022-08-20T20:59:07.406Z,100.00
2022-08-20T21:01:48.353Z,100.00
2022-08-20T21:04:15.835Z,100.00
2022-08-20T21:06:42.136Z,100.00
2022-08-20T21:09:08.462Z,100.00
2022-08-20T21:11:34.635Z,100.00
2022-08-20T21:14:00.864Z,100.00
2022-08-20T21:16:27.021Z,100.00
2022-08-20T21:18:53.200Z,100.00
2022-08-20T21:21:19.421Z,100.00
2022-08-20T21:23:45.576Z,100.00
2022-08-20T21:26:11.989Z,100.00
2022-08-20T21:28:38.302Z,100.00
2022-08-20T21:31:04.561Z,100.00
2022-08-20T21:33:30.798Z,100.00
2022-08-20T21:35:57.040Z,100.00
2022-08-20T21:38:23.844Z,100.00
2022-08-20T21:40:50.032Z,100.00
2022-08-20T21:43:16.254Z,100.00
2022-08-20T21:45:45.054Z,100.00
2022-08-20T21:48:16.118Z,100.00
2022-08-20T21:50:42.635Z,100.00
2022-08-20T21:53:12.755Z,100.00
2022-08-20T21:55:39.960Z,100.00
2022-08-20T21:58:06.170Z,100.00
2022-08-20T22:00:51.686Z,100.00
2022-08-20T22:03:20.050Z,100.00
2022-08-20T22:05:46.408Z,100.00
2022-08-20T22:08:12.863Z,100.00
2022-08-20T22:10:39.108Z,100.00
2022-08-20T22:13:05.893Z,100.00
2022-08-20T22:15:32.337Z,100.00
2022-08-20T22:17:58.868Z,100.00
2022-08-20T22:20:25.291Z,100.00
2022-08-20T22:22:51.564Z,100.00
2022-08-20T22:25:18.054Z,100.00
2022-08-20T22:27:44.198Z,100.00
2022-08-20T22:30:11.196Z,100.00
2022-08-20T22:32:50.545Z,100.00
2022-08-20T22:35:18.428Z,100.00
2022-08-20T22:37:44.602Z,100.00
2022-08-20T22:40:11.075Z,100.00
2022-08-20T22:42:37.404Z,100.00
2022-08-20T22:45:03.736Z,100.00
2022-08-20T22:47:30.109Z,100.00
2022-08-20T22:49:57.267Z,100.00
2022-08-20T22:52:24.858Z,100.00
2022-08-20T22:54:52.928Z,100.00
2022-08-20T22:57:20.419Z,100.00
2022-08-20T22:59:53.045Z,100.00
2022-08-20T23:02:21.482Z,100.00
2022-08-20T23:04:47.659Z,100.00
2022-08-20T23:07:18.846Z,100.00
2022-08-20T23:09:45.027Z,100.00
2022-08-20T23:12:11.358Z,100.00
2022-08-20T23:14:37.548Z,100.00
2022-08-20T23:17:13.419Z,100.00
2022-08-20T23:19:41.872Z,100.00
2022-08-20T23:22:08.539Z,100.00
2022-08-20T23:24:35.042Z,100.00
2022-08-20T23:27:02.122Z,100.00
2022-08-20T23:29:28.314Z,100.00
2022-08-20T23:31:55.928Z,100.00
2022-08-20T23:34:22.519Z,100.00
2022-08-20T23:36:48.924Z,100.00
2022-08-20T23:39:15.200Z,100.00
2022-08-20T23:41:47.585Z,100.00
2022-08-20T23:44:25.278Z,100.00
2022-08-20T23:46:54.669Z,100.00
2022-08-20T23:49:20.933Z,100.00
2022-08-20T23:51:47.098Z,100.00
2022-08-20T23:54:13.296Z,100.00
2022-08-20T23:56:39.478Z,100.00
2022-08-20T23:59:05.925Z,100.00
